Home > Products > Valid Products > TAF

000
FTUS43 KLMK 210500
TAFSDF
TAF
KSDF 210520Z 2106/2212 VRB03KT P6SM BKN250
     FM211300 23010KT P6SM BKN150
     FM220000 24007KT P6SM VCSH BKN050=



000
FTUS43 KLMK 210500
TAFLEX
TAF
KLEX 210520Z 2106/2206 VRB03KT P6SM BKN250
     FM211300 23009KT P6SM BKN150
     FM220000 23007KT P6SM BKN050
     FM220300 23007KT P6SM VCSH BKN050=



000
FTUS43 KLMK 210500
TAFBWG
TAF
KBWG 210520Z 2106/2206 00000KT P6SM BKN250
     FM211400 23010KT P6SM SCT060 BKN150
     FM220000 21006KT P6SM VCSH BKN060=



000
FTUS43 KLMK 202300
TAFBWG
TAF
KBWG 202320Z 2100/2124 00000KT P6SM BKN250
     FM211300 23009KT P6SM BKN150=



000
FTUS43 KLMK 202300
TAFLEX
TAF
KLEX 202320Z 2100/2124 VRB03KT P6SM BKN250
     FM211300 23009KT P6SM BKN150=



000
FTUS43 KLMK 202300
TAFSDF
TAF
KSDF 202320Z 2100/2206 VRB03KT P6SM BKN250
     FM211300 23009KT P6SM BKN150
     FM220000 22007KT P6SM VCSH BKN050=



000
FTUS43 KLMK 201700
TAFBWG
TAF
KBWG 201728Z 2018/2118 18004KT P6SM FEW040 FEW250
     FM210000 00000KT P6SM SCT250
     FM211300 22005KT P6SM SCT050 BKN150=



000
FTUS43 KLMK 201700
TAFLEX
TAF
KLEX 201728Z 2018/2118 17005KT P6SM FEW040 FEW250
     FM210000 VRB03KT P6SM BKN250
     FM211300 22006KT P6SM SCT050 BKN150=



000
FTUS43 KLMK 201700
TAFSDF
TAF
KSDF 201728Z 2018/2124 18004KT P6SM FEW040 FEW250
     FM210000 VRB03KT P6SM BKN250
     FM211300 22005KT P6SM SCT050 BKN150
     FM212200 24009KT P6SM VCSH BKN040 BKN150=



000
FTUS43 KLMK 201100
TAFBWG
TAF
KBWG 201120Z 2012/2112 00000KT P6SM FEW250
     FM201400 VRB04KT P6SM FEW040 FEW250
     FM210000 VRB03KT P6SM BKN250=



000
FTUS43 KLMK 201100
TAFLEX
TAF
KLEX 201120Z 2012/2112 VRB04KT P6SM FEW250
     FM201400 15006KT P6SM FEW040 FEW250
     FM210000 VRB03KT P6SM BKN250=



000
FTUS43 KLMK 201100
TAFSDF
TAF
KSDF 201120Z 2012/2118 VRB04KT P6SM FEW250
     FM201400 VRB04KT P6SM FEW040 FEW250
     FM210000 VRB04KT P6SM BKN250=



000
FTUS43 KLMK 200500
TAFSDF
TAF
KSDF 200520Z 2006/2112 VRB04KT P6SM FEW250
     FM201400 VRB03KT P6SM FEW040 FEW250
     FM210000 VRB04KT P6SM SCT250=



000
FTUS43 KLMK 200500
TAFBWG
TAF
KBWG 200520Z 2006/2106 00000KT P6SM FEW250
     FM201400 VRB03KT P6SM FEW040 FEW250
     FM210000 VRB03KT P6SM SCT250=



000
FTUS43 KLMK 200500
TAFLEX
TAF
KLEX 200520Z 2006/2106 04005KT P6SM FEW250
     FM201400 15006KT P6SM FEW040 FEW250
     FM210000 VRB03KT P6SM SCT250=



000
FTUS43 KLMK 192300
TAFSDF
TAF
KSDF 192320Z 2000/2106 06007KT P6SM SKC
     FM201600 VRB03KT P6SM FEW040 FEW250=



000
FTUS43 KLMK 192300
TAFLEX
TAF
KLEX 192320Z 2000/2024 05008KT P6SM FEW200
     FM200500 08003KT P6SM SCT200
     FM201500 13005KT P6SM FEW040 FEW250=



000
FTUS43 KLMK 192300
TAFBWG
TAF
KBWG 192320Z 2000/2024 06007KT P6SM SKC
     FM200900 00000KT 6SM BR SKC
     FM201400 VRB03KT P6SM FEW040 FEW250=



000
FTUS43 KLMK 192100 AAB
TAFSDF
TAF AMD
KSDF 192135Z 1922/2024 05011KT P6SM SKC
     FM192300 05004KT P6SM SKC
     FM201500 14006KT P6SM FEW040 FEW250=



000
FTUS43 KLMK 191800 AAA
TAFSDF
TAF AMD
KSDF 191805Z 1918/2024 04011G18KT P6SM SKC
     FM192300 05004KT P6SM SKC
     FM201500 14006KT P6SM FEW040 FEW250=



000
FTUS43 KLMK 191800 AAA
TAFLEX
TAF AMD
KLEX 191805Z 1918/2018 04015G20KT P6SM FEW250
     FM192300 05004KT P6SM SKC
     FM201500 13005KT P6SM FEW040 FEW250=



000
FTUS43 KLMK 191700
TAFSDF
TAF
KSDF 191720Z 1918/2024 05011KT P6SM SKC
     FM200000 05004KT P6SM SKC
     FM201500 14006KT P6SM FEW040 FEW250=



000
FTUS43 KLMK 191700
TAFBWG
TAF
KBWG 191720Z 1918/2018 06011KT P6SM SKC
     FM200000 05003KT P6SM SKC
     FM200900 00000KT 6SM BR SKC
     FM201300 13005KT P6SM FEW040 FEW250=



000
FTUS43 KLMK 191700
TAFLEX
TAF
KLEX 191720Z 1918/2018 05012KT P6SM FEW250
     FM200000 05004KT P6SM SKC
     FM201500 13005KT P6SM FEW040 FEW250=



000
FTUS43 KLMK 191100
TAFBWG
TAF
KBWG 191130Z 1912/2012 00000KT P6SM SCT250
     FM191400 05011KT P6SM FEW250
     FM200000 VRB03KT P6SM FEW250=



000
FTUS43 KLMK 191100
TAFLEX
TAF
KLEX 191130Z 1912/2012 VRB04KT P6SM BKN250
     FM191400 05012KT P6SM SCT250
     FM200000 VRB03KT P6SM FEW250=



000
FTUS43 KLMK 191100
TAFSDF
TAF
KSDF 191130Z 1912/2018 VRB04KT P6SM SCT250
     FM191400 05011KT P6SM FEW250
     FM200000 VRB03KT P6SM FEW250=



000
FTUS43 KLMK 190500
TAFLEX
TAF
KLEX 190520Z 1906/2006 VRB04KT P6SM BKN250
     FM191400 05012KT P6SM SCT250
     FM200000 VRB03KT P6SM FEW250=



000
FTUS43 KLMK 190500
TAFSDF
TAF
KSDF 190520Z 1906/2012 VRB04KT P6SM BKN250
     FM191400 05010KT P6SM FEW250
     FM200000 VRB03KT P6SM FEW250=



000
FTUS43 KLMK 190500
TAFBWG
TAF
KBWG 190520Z 1906/2006 00000KT P6SM BKN250
     FM191400 05010KT P6SM FEW250
     FM200000 VRB03KT P6SM FEW250=



000
FTUS43 KLMK 182300
TAFSDF
TAF
KSDF 182320Z 1900/2006 VRB04KT P6SM BKN250
     FM191400 06009KT P6SM FEW250=



000
FTUS43 KLMK 182300
TAFBWG
TAF
KBWG 182320Z 1900/1924 00000KT P6SM BKN250
     FM191400 06009KT P6SM SKC=



000
FTUS43 KLMK 182300
TAFLEX
TAF
KLEX 182320Z 1900/1924 VRB04KT P6SM BKN250
     FM191400 05011KT P6SM SCT250=



000
FTUS43 KLMK 181700
TAFBWG
TAF
KBWG 181720Z 1818/1918 VRB04KT P6SM BKN060 BKN250
     FM190100 VRB03KT P6SM SCT250
     FM191400 05009KT P6SM SKC=



000
FTUS43 KLMK 181700
TAFLEX
TAF
KLEX 181720Z 1818/1918 VRB04KT P6SM SCT060 BKN250
     FM190100 02005KT P6SM SCT250
     FM191400 05012KT P6SM SCT250=



000
FTUS43 KLMK 181700
TAFSDF
TAF
KSDF 181720Z 1818/1924 VRB04KT P6SM SCT060 BKN250
     FM190100 02005KT P6SM SCT250
     FM191400 05010KT P6SM FEW250=



000
FTUS43 KLMK 181100
TAFBWG
TAF
KBWG 181120Z 1812/1912 VRB04KT P6SM BKN060 BKN250
     FM190100 VRB03KT P6SM SKC=



000
FTUS43 KLMK 181100
TAFLEX
TAF
KLEX 181120Z 1812/1912 VRB04KT P6SM BKN060 BKN250
     FM190100 VRB03KT P6SM SKC=



000
FTUS43 KLMK 181100
TAFSDF
TAF
KSDF 181120Z 1812/1918 VRB04KT P6SM BKN060 BKN250
     FM190100 VRB03KT P6SM SKC=



    US Dept of Commerce
    National Oceanic and Atmospheric Administration
    National Weather Service
    1325 East West Highway
    Silver Spring, MD 20910
    Page Author: NWS Internet Services Team
Disclaimer
Information Quality
Credits
Glossary
Privacy Policy
Freedom of Information Act (FOIA)
About Us
Career Opportunities